Time;durP1;ratioP1;P1;durP2;ratioP2;P2;SDS_P1;SDS_P2;PMS_P1;PMS_P2;Temp;Humidity;BMP_temperature;BMP_pressure;BME280_temperature;BME280_humidity;BME280_pressure;Samples;Min_cycle;Max_cycle;Signal;HPM_P1;HPM_P2
2022/07/13 00:02:16;;;;;;;3.60;1.80;;;;;11.10;97755.60;;;;111137;1248;41175;-77
2022/07/13 00:04:46;;;;;;;3.80;1.90;;;;;11.10;97769.00;;;;111159;1248;41269;-78
2022/07/13 00:07:17;;;;;;;3.90;2.00;;;;;11.10;97772.60;;;;111144;1250;41261;-75
2022/07/13 00:09:47;;;;;;;3.10;1.80;;;;;11.10;97768.40;;;;111186;1247;41139;-75
2022/07/13 00:12:17;;;;;;;3.60;2.00;;;;;11.10;97767.20;;;;111206;1250;41294;-77
2022/07/13 00:14:46;;;;;;;5.40;2.20;;;;;11.02;97762.60;;;;111220;1247;41142;-77
2022/07/13 00:17:16;;;;;;;6.70;2.30;;;;;10.90;97764.20;;;;111152;1248;41260;-78
2022/07/13 00:19:45;;;;;;;5.00;2.50;;;;;10.90;97767.20;;;;110811;1250;41151;-78
2022/07/13 00:22:15;;;;;;;2.70;1.80;;;;;10.82;97768.20;;;;111084;1249;41776;-79
2022/07/13 00:24:44;;;;;;;4.40;2.10;;;;;10.80;97766.60;;;;111133;1248;41615;-79
2022/07/13 00:27:13;;;;;;;3.50;1.80;;;;;10.80;97760.60;;;;111109;1250;41181;-80
2022/07/13 00:29:43;;;;;;;4.20;1.90;;;;;10.80;97766.80;;;;110975;1251;41165;-79
2022/07/13 00:32:12;;;;;;;3.30;1.90;;;;;10.80;97764.60;;;;111007;1250;42197;-79
2022/07/13 00:34:42;;;;;;;4.00;2.10;;;;;10.80;97769.60;;;;111123;1250;41983;-77
2022/07/13 00:37:13;;;;;;;3.50;2.00;;;;;10.86;97765.40;;;;111220;1247;41135;-81
2022/07/13 00:39:43;;;;;;;3.20;1.90;;;;;10.90;97757.80;;;;111204;1248;41366;-79
2022/07/13 00:42:13;;;;;;;5.50;2.30;;;;;10.90;97758.40;;;;111096;1250;40988;-75
2022/07/13 00:44:43;;;;;;;3.70;1.90;;;;;10.90;97754.00;;;;111077;1248;41345;-77
2022/07/13 00:47:13;;;;;;;3.80;2.10;;;;;10.98;97751.20;;;;111120;1249;42414;-78
2022/07/13 00:49:43;;;;;;;4.20;1.60;;;;;10.96;97757.40;;;;110963;1251;41357;-77
2022/07/13 00:52:13;;;;;;;4.90;1.90;;;;;10.90;97757.40;;;;110992;1250;41136;-78
2022/07/13 00:54:44;;;;;;;3.50;1.50;;;;;10.90;97754.80;;;;111023;1250;41155;-75
2022/07/13 00:57:14;;;;;;;3.50;1.70;;;;;10.90;97752.20;;;;111082;1250;41578;-78
2022/07/13 00:59:47;;;;;;;2.90;1.60;;;;;10.80;97755.00;;;;111133;1250;41123;-75
2022/07/13 01:02:18;;;;;;;2.80;1.70;;;;;10.80;97754.00;;;;111137;1250;41270;-73
2022/07/13 01:04:48;;;;;;;3.20;1.60;;;;;10.80;97757.20;;;;111104;1250;41364;-73
2022/07/13 01:07:18;;;;;;;;;;;;;10.80;97749.60;;;;111149;1250;41934;-76
2022/07/13 01:09:48;;;;;;;2.60;1.60;;;;;10.80;97752.60;;;;111027;1250;41226;-74
2022/07/13 01:12:18;;;;;;;2.70;1.60;;;;;10.80;97749.40;;;;110941;1249;41158;-73
2022/07/13 01:14:48;;;;;;;2.60;1.50;;;;;10.80;97748.00;;;;110922;1252;41621;-78
2022/07/13 01:17:18;;;;;;;5.50;2.20;;;;;10.80;97748.20;;;;110994;1249;41214;-76
2022/07/13 01:19:49;;;;;;;3.50;1.80;;;;;10.80;97747.60;;;;110859;1250;41264;-78
2022/07/13 01:22:26;;;;;;;4.20;1.90;;;;;10.80;97742.20;;;;111139;1249;41136;-78
2022/07/13 01:24:58;;;;;;;4.50;2.00;;;;;10.78;97741.60;;;;111172;1249;42823;-72
2022/07/13 01:27:32;;;;;;;4.40;2.00;;;;;10.70;97742.80;;;;111229;1247;42012;-77
2022/07/13 01:30:03;;;;;;;3.40;1.70;;;;;10.70;97740.60;;;;111446;1245;41608;-79
2022/07/13 01:32:50;;;;;;;3.30;1.70;;;;;10.70;97738.40;;;;111229;1247;41180;-76
2022/07/13 01:35:22;;;;;;;2.30;1.50;;;;;10.68;97736.80;;;;111345;1247;41164;-78
2022/07/13 01:37:54;;;;;;;3.10;1.60;;;;;10.60;97732.40;;;;111378;1247;41154;-76
2022/07/13 01:40:24;;;;;;;4.00;1.80;;;;;10.60;97729.60;;;;111247;1247;41312;-73
2022/07/13 01:42:53;;;;;;;2.90;1.60;;;;;10.60;97731.40;;;;111378;1247;41151;-74
2022/07/13 01:45:24;;;;;;;3.70;1.90;;;;;10.60;97731.80;;;;111072;1249;41128;-73
2022/07/13 01:47:56;;;;;;;4.40;2.00;;;;;10.60;97727.00;;;;111079;1250;41817;-74
2022/07/13 01:50:28;;;;;;;6.10;2.50;;;;;10.60;97727.20;;;;111210;1248;41711;-72
2022/07/13 01:52:58;;;;;;;5.70;2.50;;;;;10.54;97717.80;;;;111090;1248;41175;-75
2022/07/13 01:55:30;;;;;;;8.40;3.20;;;;;10.56;97720.80;;;;111190;1247;41554;-77
2022/07/13 01:58:00;;;;;;;8.60;2.80;;;;;10.60;97720.60;;;;111179;1247;41985;-78
2022/07/13 02:00:31;;;;;;;;;;;;;10.58;97717.60;;;;111261;1247;41136;-73
2022/07/13 02:03:03;;;;;;;4.90;2.10;;;;;10.52;97712.20;;;;111322;1246;41150;-78
2022/07/13 02:05:35;;;;;;;8.10;3.50;;;;;10.52;97712.00;;;;111134;1248;42324;-75
2022/07/13 02:08:07;;;;;;;8.00;3.30;;;;;10.50;97717.60;;;;111047;1247;42603;-76
2022/07/13 02:10:37;;;;;;;7.50;2.80;;;;;10.50;97714.40;;;;111141;1248;41644;-73
2022/07/13 02:13:08;;;;;;;;;;;;;10.50;97712.80;;;;111245;1246;41317;-76
2022/07/13 02:15:39;;;;;;;6.70;2.60;;;;;10.50;97713.60;;;;111104;1249;41351;-76
2022/07/13 02:18:10;;;;;;;6.70;2.30;;;;;10.50;97710.00;;;;111169;1247;41271;-79
2022/07/13 02:20:39;;;;;;;5.00;2.40;;;;;10.50;97708.00;;;;111060;1249;41441;-74
2022/07/13 02:23:09;;;;;;;5.00;2.00;;;;;10.50;97708.00;;;;111034;1249;41333;-77
2022/07/13 02:25:39;;;;;;;5.00;2.10;;;;;10.54;97709.80;;;;111307;1246;41357;-73
2022/07/13 02:28:08;;;;;;;4.50;2.10;;;;;10.58;97706.80;;;;111221;1247;41588;-76
2022/07/13 02:30:38;;;;;;;6.60;2.20;;;;;10.60;97708.60;;;;111302;1247;41142;-74
2022/07/13 02:33:08;;;;;;;5.30;2.10;;;;;10.60;97704.20;;;;111158;1247;41128;-75
2022/07/13 02:35:39;;;;;;;6.50;2.40;;;;;10.60;97701.00;;;;110988;1250;41146;-77
2022/07/13 02:38:08;;;;;;;4.70;2.10;;;;;10.60;97700.80;;;;111238;1248;41720;-78
2022/07/13 02:40:38;;;;;;;4.10;2.00;;;;;10.60;97701.80;;;;110874;1248;41191;-77
2022/07/13 02:43:07;;;;;;;3.90;1.80;;;;;10.64;97702.40;;;;111390;1247;41140;-76
2022/07/13 02:45:37;;;;;;;4.70;2.10;;;;;10.70;97702.20;;;;111230;1247;41705;-75
2022/07/13 02:48:08;;;;;;;5.30;2.10;;;;;10.72;97709.80;;;;111311;1247;41253;-78
2022/07/13 02:50:38;;;;;;;3.30;1.90;;;;;10.80;97708.00;;;;111133;1248;41277;-75
2022/07/13 02:53:08;;;;;;;4.40;1.80;;;;;10.82;97704.60;;;;111404;1245;41179;-76
2022/07/13 02:55:38;;;;;;;5.70;1.90;;;;;10.90;97705.60;;;;111111;1248;41785;-77
2022/07/13 02:58:08;;;;;;;7.00;3.10;;;;;10.90;97698.80;;;;111314;1247;41936;-77
2022/07/13 03:00:39;;;;;;;9.00;3.80;;;;;10.90;97693.40;;;;111111;1247;41693;-75
2022/07/13 03:03:09;;;;;;;7.40;3.30;;;;;10.90;97693.20;;;;111124;1247;40922;-75
2022/07/13 03:05:39;;;;;;;7.00;3.00;;;;;10.80;97691.20;;;;111262;1247;41536;-79
2022/07/13 03:08:08;;;;;;;6.90;2.80;;;;;10.80;97693.00;;;;111298;1247;41138;-78
2022/07/13 03:10:39;;;;;;;;;;;;;10.82;97695.00;;;;111059;1251;41175;-72
2022/07/13 03:13:09;;;;;;;6.00;2.40;;;;;10.90;97696.40;;;;111207;1247;41121;-78
2022/07/13 03:15:39;;;;;;;5.90;2.00;;;;;10.90;97693.20;;;;111059;1249;41613;-76
2022/07/13 03:18:08;;;;;;;4.80;2.30;;;;;11.00;97697.40;;;;111196;1247;41148;-77
2022/07/13 03:20:39;;;;;;;5.40;2.20;;;;;11.00;97695.80;;;;110932;1251;41595;-78
2022/07/13 03:23:09;;;;;;;6.70;2.70;;;;;11.10;97692.80;;;;111115;1247;41411;-80
2022/07/13 03:25:38;;;;;;;5.00;2.20;;;;;11.14;97691.20;;;;111262;1247;41269;-77
2022/07/13 03:28:08;;;;;;;4.50;2.10;;;;;11.20;97692.80;;;;111182;1246;41937;-72
2022/07/13 03:30:37;;;;;;;4.00;2.00;;;;;11.22;97693.20;;;;111178;1245;41214;-77
2022/07/13 03:33:07;;;;;;;4.00;2.00;;;;;11.30;97695.00;;;;111030;1247;41892;-76
2022/07/13 03:35:37;;;;;;;3.90;1.80;;;;;11.32;97693.60;;;;111177;1246;41271;-77
2022/07/13 03:38:06;;;;;;;3.80;1.90;;;;;11.40;97696.60;;;;111007;1247;41237;-79
2022/07/13 03:40:36;;;;;;;3.00;1.70;;;;;11.50;97707.20;;;;111357;1245;41201;-78
2022/07/13 03:43:06;;;;;;;5.00;2.00;;;;;11.50;97705.60;;;;111267;1247;41614;-78
2022/07/13 03:45:36;;;;;;;3.20;1.70;;;;;11.60;97707.20;;;;111018;1247;41713;-78
2022/07/13 03:48:06;;;;;;;4.90;2.10;;;;;11.70;97705.60;;;;111277;1247;41350;-77
2022/07/13 03:50:36;;;;;;;3.10;1.80;;;;;11.76;97710.60;;;;111166;1248;41137;-76
2022/07/13 03:53:05;;;;;;;3.40;1.70;;;;;11.80;97714.80;;;;111022;1248;41496;-78
2022/07/13 03:55:34;;;;;;;3.30;1.60;;;;;11.90;97708.20;;;;111317;1247;40996;-75
2022/07/13 03:58:04;;;;;;;4.60;2.00;;;;;12.00;97715.40;;;;111212;1247;41827;-74
2022/07/13 04:00:36;;;;;;;3.00;1.70;;;;;12.00;97717.00;;;;111147;1248;41193;-79
2022/07/13 04:03:05;;;;;;;4.10;1.80;;;;;12.10;97721.20;;;;111148;1249;41639;-79
2022/07/13 04:05:36;;;;;;;3.30;1.90;;;;;12.20;97720.80;;;;111169;1249;41134;-76
2022/07/13 04:08:06;;;;;;;4.10;2.10;;;;;12.30;97719.80;;;;111201;1248;41145;-79
2022/07/13 04:10:36;;;;;;;4.70;2.30;;;;;12.40;97722.60;;;;111305;1246;41204;-79
2022/07/13 04:13:06;;;;;;;6.70;2.60;;;;;12.50;97727.40;;;;111267;1247;41165;-79
2022/07/13 04:15:39;;;;;;;5.60;2.50;;;;;12.60;97732.20;;;;111122;1247;41140;-77
2022/07/13 04:18:08;;;;;;;5.10;2.20;;;;;12.64;97720.60;;;;111350;1244;42628;-77
2022/07/13 04:20:38;;;;;;;4.50;2.30;;;;;12.70;97719.00;;;;111096;1247;41022;-78
2022/07/13 04:23:08;;;;;;;4.00;1.90;;;;;12.80;97713.20;;;;111320;1247;41158;-79
2022/07/13 04:25:37;;;;;;;3.10;1.80;;;;;12.90;97710.80;;;;111169;1247;41620;-76
2022/07/13 04:28:07;;;;;;;4.20;1.90;;;;;13.10;97714.60;;;;111024;1247;41919;-77
2022/07/13 04:30:36;;;;;;;3.80;2.00;;;;;13.34;97706.00;;;;111194;1247;41124;-77
2022/07/13 04:33:06;;;;;;;9.60;2.50;;;;;13.60;97704.60;;;;111155;1248;41135;-76
2022/07/13 04:35:35;;;;;;;5.00;2.20;;;;;13.80;97695.80;;;;110936;1249;41156;-82
2022/07/13 04:38:05;;;;;;;12.80;2.60;;;;;13.90;97685.40;;;;111163;1247;41153;-81
2022/07/13 04:40:35;;;;;;;6.20;2.50;;;;;14.30;97678.40;;;;110805;1251;42491;-77
2022/07/13 04:43:05;;;;;;;4.90;2.40;;;;;14.70;97660.80;;;;111320;1246;40752;-78
2022/07/13 04:45:34;;;;;;;5.20;2.50;;;;;15.24;97655.20;;;;111105;1248;41478;-80
2022/07/13 04:48:04;;;;;;;6.00;2.60;;;;;15.80;97667.20;;;;110966;1248;41511;-75
2022/07/13 04:50:34;;;;;;;6.30;2.60;;;;;16.12;97657.00;;;;111160;1247;41152;-79
2022/07/13 04:53:03;;;;;;;6.90;2.10;;;;;16.40;97648.60;;;;111025;1247;40876;-77
2022/07/13 04:55:32;;;;;;;4.90;2.30;;;;;16.82;97653.20;;;;111150;1247;41442;-79
2022/07/13 04:58:02;;;;;;;10.30;4.10;;;;;17.32;97646.00;;;;110861;1249;41156;-72
2022/07/13 05:00:31;;;;;;;13.50;4.30;;;;;17.90;97636.00;;;;111140;1247;41161;-80
2022/07/13 05:03:18;;;;;;;11.10;4.10;;;;;18.48;97652.60;;;;111077;1249;41521;-82
2022/07/13 05:05:47;;;;;;;8.30;3.50;;;;;18.80;97640.00;;;;111168;1248;41650;-78
2022/07/13 05:08:17;;;;;;;6.00;2.60;;;;;18.52;97666.40;;;;111297;1246;41964;-81
2022/07/13 05:10:49;;;;;;;6.60;2.30;;;;;18.12;97667.00;;;;111090;1250;41165;-81
2022/07/13 05:13:21;;;;;;;4.00;1.90;;;;;17.70;97667.80;;;;111228;1247;41524;-79
2022/07/13 05:15:54;;;;;;;4.10;2.00;;;;;17.30;97672.60;;;;111055;1247;41260;-80
2022/07/13 05:18:24;;;;;;;3.40;1.70;;;;;17.08;97676.60;;;;111305;1247;41684;-80
2022/07/13 05:20:55;;;;;;;6.40;1.90;;;;;16.78;97676.40;;;;111268;1247;41598;-80
2022/07/13 05:23:26;;;;;;;4.60;2.00;;;;;16.60;97675.60;;;;111368;1247;41419;-80
2022/07/13 05:25:58;;;;;;;5.40;2.00;;;;;16.50;97671.80;;;;111033;1247;41125;-80
2022/07/13 05:28:30;;;;;;;5.20;2.30;;;;;16.40;97673.40;;;;111239;1247;42008;-75
2022/07/13 05:31:00;;;;;;;6.50;2.20;;;;;16.20;97672.80;;;;111304;1247;41154;-76
2022/07/13 05:33:29;;;;;;;7.40;2.70;;;;;16.00;97668.20;;;;111112;1247;41134;-75
2022/07/13 05:36:03;;;;;;;6.10;2.50;;;;;15.84;97675.60;;;;111215;1247;41460;-80
2022/07/13 05:38:33;;;;;;;4.50;2.20;;;;;15.84;97676.60;;;;111177;1247;41156;-79
2022/07/13 05:41:02;;;;;;;6.80;2.30;;;;;15.76;97675.80;;;;111349;1247;41115;-79
2022/07/13 05:43:31;;;;;;;4.10;2.10;;;;;15.70;97677.40;;;;111178;1247;41715;-80
2022/07/13 05:46:00;;;;;;;4.90;2.30;;;;;15.80;97677.60;;;;111330;1246;41153;-79
2022/07/13 05:48:30;;;;;;;4.40;1.90;;;;;15.86;97682.20;;;;111229;1247;41137;-78
2022/07/13 05:50:59;;;;;;;3.90;1.80;;;;;16.04;97684.80;;;;111378;1246;41146;-80
2022/07/13 05:53:48;;;;;;;5.30;1.70;;;;;16.40;97679.80;;;;111205;1247;41248;-78
2022/07/13 05:56:17;;;;;;;4.00;1.90;;;;;16.60;97682.20;;;;111191;1247;41140;-79
2022/07/13 05:58:46;;;;;;;4.10;2.00;;;;;16.52;97677.40;;;;111307;1246;41264;-78
2022/07/13 06:01:15;;;;;;;5.20;2.00;;;;;16.52;97669.60;;;;111320;1247;41681;-80
2022/07/13 06:03:44;;;;;;;9.10;2.20;;;;;16.40;97666.00;;;;111258;1247;41143;-80
2022/07/13 06:06:13;;;;;;;5.50;2.20;;;;;16.40;97667.60;;;;111335;1246;41148;-80
2022/07/13 06:08:43;;;;;;;6.10;2.40;;;;;16.40;97661.00;;;;111380;1247;41139;-74
2022/07/13 06:11:12;;;;;;;5.00;2.10;;;;;16.30;97662.60;;;;111377;1246;41151;-81
2022/07/13 06:13:41;;;;;;;5.70;2.40;;;;;16.20;97666.60;;;;111314;1246;41258;-81
2022/07/13 06:16:10;;;;;;;6.20;2.20;;;;;16.04;97665.20;;;;111341;1246;41845;-80
2022/07/13 06:18:39;;;;;;;4.60;2.00;;;;;15.92;97662.80;;;;111263;1247;41121;-80
2022/07/13 06:21:08;;;;;;;4.30;1.90;;;;;15.80;97663.60;;;;111136;1247;41988;-78
2022/07/13 06:23:37;;;;;;;5.40;2.30;;;;;15.82;97657.00;;;;111313;1247;41124;-80
2022/07/13 06:26:06;;;;;;;4.70;2.10;;;;;16.00;97649.40;;;;111210;1246;41535;-74
2022/07/13 06:28:35;;;;;;;3.40;1.90;;;;;16.10;97650.80;;;;111140;1248;42362;-70
2022/07/13 06:31:05;;;;;;;5.60;1.90;;;;;16.32;97639.00;;;;111279;1247;41341;-78
2022/07/13 06:33:36;;;;;;;3.70;1.90;;;;;16.66;97633.00;;;;111315;1247;41166;-78
2022/07/13 06:36:10;;;;;;;4.30;1.90;;;;;16.92;97642.80;;;;111107;1250;40778;-77
2022/07/13 06:38:43;;;;;;;4.40;1.90;;;;;17.14;97649.60;;;;111046;1250;41154;-78
2022/07/13 06:41:14;;;;;;;4.60;2.00;;;;;17.20;97660.80;;;;111054;1249;41255;-77
2022/07/13 06:43:46;;;;;;;5.80;2.10;;;;;17.30;97659.60;;;;111029;1249;41918;-78
2022/07/13 06:46:20;;;;;;;3.90;1.90;;;;;17.50;97663.20;;;;111010;1248;41146;-77
2022/07/13 06:48:55;;;;;;;4.20;1.90;;;;;17.70;97669.60;;;;111024;1250;41263;-75
2022/07/13 06:51:26;;;;;;;4.50;2.00;;;;;17.94;97673.60;;;;110970;1250;41283;-78
2022/07/13 06:53:58;;;;;;;2.70;1.70;;;;;18.20;97668.80;;;;111204;1248;41137;-78
2022/07/13 06:56:29;;;;;;;4.70;1.90;;;;;18.00;97673.80;;;;111219;1248;41259;-79
2022/07/13 06:59:00;;;;;;;4.10;1.80;;;;;18.00;97677.40;;;;111269;1248;41855;-77
2022/07/13 07:01:30;;;;;;;4.50;1.60;;;;;18.00;97674.60;;;;111278;1247;41135;-80
2022/07/13 07:04:01;;;;;;;4.30;2.00;;;;;18.10;97678.60;;;;111235;1247;41134;-80
2022/07/13 07:06:31;;;;;;;6.60;1.70;;;;;18.20;97683.20;;;;110945;1250;42056;-79
2022/07/13 07:09:02;;;;;;;4.60;2.00;;;;;18.20;97686.20;;;;111014;1250;41946;-78
2022/07/13 07:11:33;;;;;;;3.50;1.80;;;;;18.16;97684.80;;;;110931;1247;41162;-78
2022/07/13 07:14:04;;;;;;;3.40;1.80;;;;;18.10;97682.60;;;;110986;1251;41183;-78
2022/07/13 07:16:34;;;;;;;4.00;1.90;;;;;18.12;97676.80;;;;111071;1249;41270;-78
2022/07/13 07:19:05;;;;;;;3.60;1.70;;;;;18.00;97674.20;;;;111277;1247;41160;-79
2022/07/13 07:21:54;;;;;;;6.20;2.20;;;;;18.00;97679.20;;;;111224;1247;41137;-76
2022/07/13 07:24:26;;;;;;;6.00;2.00;;;;;18.00;97676.80;;;;110922;1249;41186;-77
2022/07/13 07:26:58;;;;;;;4.90;2.10;;;;;18.00;97680.00;;;;111256;1247;41694;-78
2022/07/13 07:29:30;;;;;;;4.20;1.90;;;;;18.00;97685.00;;;;110986;1250;41647;-77
2022/07/13 07:32:01;;;;;;;5.30;2.20;;;;;17.90;97690.80;;;;111135;1249;43338;-78
2022/07/13 07:34:33;;;;;;;5.90;2.20;;;;;17.88;97688.40;;;;111277;1246;41593;-77
2022/07/13 07:37:03;;;;;;;7.60;2.40;;;;;17.80;97686.80;;;;111061;1250;41735;-73
2022/07/13 07:39:32;;;;;;;4.90;2.00;;;;;17.70;97674.40;;;;111305;1247;41141;-77
2022/07/13 07:42:06;;;;;;;7.90;2.90;;;;;17.62;97665.60;;;;111021;1247;41257;-77
2022/07/13 07:44:38;;;;;;;6.90;2.60;;;;;17.60;97666.40;;;;110767;1247;714142;-75
2022/07/13 07:47:09;;;;;;;8.40;3.50;;;;;17.54;97667.40;;;;111268;1247;41255;-77
2022/07/13 07:49:41;;;;;;;8.30;3.00;;;;;17.60;97665.80;;;;111227;1247;41129;-73
2022/07/13 07:52:12;;;;;;;6.30;2.60;;;;;17.60;97669.00;;;;111231;1246;41179;-77
2022/07/13 07:55:03;;;;;;;9.40;2.60;;;;;17.60;97671.00;;;;111319;1247;42074;-77
2022/07/13 07:57:48;;;;;;;7.60;2.70;;;;;17.82;97674.00;;;;111339;1247;41619;-77
2022/07/13 08:00:20;;;;;;;4.00;2.00;;;;;18.00;97666.00;;;;111525;1245;41596;-76
2022/07/13 08:02:49;;;;;;;6.20;2.60;;;;;18.10;97665.00;;;;111251;1247;41121;-76
2022/07/13 08:05:20;;;;;;;7.20;2.60;;;;;18.30;97656.60;;;;111430;1246;41169;-73
2022/07/13 08:07:50;;;;;;;4.10;1.90;;;;;18.40;97657.20;;;;111250;1247;40979;-76
2022/07/13 08:10:21;;;;;;;7.20;2.50;;;;;18.52;97662.60;;;;111338;1247;41146;-78
2022/07/13 08:12:59;;;;;;;4.50;2.10;;;;;18.70;97657.40;;;;111255;1247;42368;-79
2022/07/13 08:15:34;;;;;;;5.90;2.10;;;;;18.96;97649.20;;;;111337;1247;41784;-77
2022/07/13 08:18:09;;;;;;;6.50;2.20;;;;;19.18;97645.00;;;;111349;1247;41183;-77
2022/07/13 08:20:57;;;;;;;3.30;1.70;;;;;19.40;97648.40;;;;111407;1246;41994;-76
2022/07/13 08:26:29;;;;;;;4.10;1.70;;;;;19.90;97655.00;;;;111277;1248;41523;-77
2022/07/13 08:29:01;;;;;;;6.10;1.90;;;;;20.20;97660.20;;;;111211;1249;41159;-78
2022/07/13 08:31:32;;;;;;;4.60;1.70;;;;;20.70;97655.60;;;;111321;1247;42128;-78
2022/07/13 08:39:40;;;;;;;4.80;1.70;;;;;21.70;97656.80;;;;111314;1248;41750;-78
2022/07/13 08:42:13;;;;;;;6.30;2.00;;;;;21.70;97654.40;;;;111304;1247;41245;-74
2022/07/13 08:44:42;;;;;;;3.80;1.70;;;;;21.80;97654.20;;;;111133;1247;41404;-78
2022/07/13 08:47:11;;;;;;;5.20;2.00;;;;;21.90;97655.00;;;;111289;1247;42158;-74
2022/07/13 08:49:43;;;;;;;6.60;2.10;;;;;22.10;97649.20;;;;111297;1247;41259;-76
2022/07/13 08:52:15;;;;;;;3.80;1.70;;;;;22.20;97645.40;;;;111214;1247;41136;-78
2022/07/13 08:54:45;;;;;;;4.30;1.60;;;;;22.08;97645.80;;;;111289;1247;41132;-77
2022/07/13 08:57:17;;;;;;;;;;;;;22.10;97649.20;;;;111383;1244;42157;-74
2022/07/13 08:59:47;;;;;;;4.30;1.80;;;;;22.10;97643.60;;;;111239;1247;41131;-76
2022/07/13 09:02:19;;;;;;;5.60;1.90;;;;;21.90;97645.00;;;;111439;1247;41612;-75
2022/07/13 09:04:50;;;;;;;4.90;1.80;;;;;21.94;97645.40;;;;111377;1247;41150;-77
2022/07/13 09:07:21;;;;;;;3.60;1.70;;;;;21.94;97643.60;;;;111319;1247;41604;-77
2022/07/13 09:09:59;;;;;;;2.00;1.40;;;;;21.90;97642.80;;;;111123;1247;41620;-76
2022/07/13 09:12:38;;;;;;;3.20;1.60;;;;;22.20;97644.00;;;;111273;1247;41274;-76
2022/07/13 09:15:09;;;;;;;4.00;1.90;;;;;22.54;97635.60;;;;111315;1247;41255;-75
2022/07/13 09:17:43;;;;;;;3.30;1.60;;;;;22.60;97632.00;;;;111121;1247;41151;-77
2022/07/13 09:20:14;;;;;;;9.20;2.20;;;;;22.70;97630.80;;;;111303;1247;41181;-76
2022/07/13 09:22:53;;;;;;;6.00;2.00;;;;;22.98;97633.00;;;;111240;1247;41799;-76
2022/07/13 09:25:29;;;;;;;4.60;1.80;;;;;22.90;97635.80;;;;111276;1245;41703;-78
2022/07/13 09:28:05;;;;;;;5.60;1.70;;;;;22.80;97635.20;;;;111307;1247;41935;-73
2022/07/13 09:30:40;;;;;;;4.60;1.70;;;;;22.90;97636.00;;;;111320;1246;41133;-76
2022/07/13 09:33:11;;;;;;;4.20;1.70;;;;;23.04;97636.20;;;;111294;1247;41157;-77
2022/07/13 09:35:44;;;;;;;4.20;1.60;;;;;23.10;97632.80;;;;111364;1247;41140;-78
2022/07/13 09:38:30;;;;;;;2.00;1.40;;;;;23.10;97633.00;;;;111243;1247;41187;-77
2022/07/13 09:41:19;;;;;;;2.90;1.40;;;;;23.20;97632.20;;;;111327;1246;41805;-76
2022/07/13 09:46:58;;;;;;;3.10;1.40;;;;;23.40;97631.40;;;;111289;1247;41145;-76
2022/07/13 09:49:43;;;;;;;2.20;1.20;;;;;24.24;97620.40;;;;111370;1247;41223;-78
2022/07/13 09:52:18;;;;;;;3.00;1.30;;;;;25.46;97621.40;;;;111043;1248;41141;-78
2022/07/13 09:54:51;;;;;;;5.10;1.60;;;;;26.86;97602.00;;;;111310;1247;41758;-77
2022/07/13 09:57:23;;;;;;;3.20;1.30;;;;;28.14;97590.60;;;;111233;1247;41593;-76
2022/07/13 09:59:54;;;;;;;1.90;1.20;;;;;28.00;97608.00;;;;111268;1247;41141;-76
2022/07/13 10:02:26;;;;;;;2.70;1.10;;;;;27.92;97606.80;;;;111266;1247;41385;-76
2022/07/13 10:04:59;;;;;;;2.20;1.30;;;;;27.74;97605.60;;;;111269;1247;41151;-77
2022/07/13 10:07:30;;;;;;;2.70;1.20;;;;;28.10;97598.00;;;;111047;1247;42146;-77
2022/07/13 10:10:06;;;;;;;2.80;1.30;;;;;27.90;97599.40;;;;111274;1247;41592;-78
2022/07/13 10:12:36;;;;;;;2.20;1.20;;;;;28.00;97589.80;;;;111389;1246;41148;-77
2022/07/13 10:15:09;;;;;;;2.90;1.40;;;;;28.36;97603.00;;;;111142;1249;41120;-74
2022/07/13 10:17:40;;;;;;;2.20;1.30;;;;;28.04;97598.00;;;;111333;1247;41158;-75
2022/07/13 10:20:16;;;;;;;3.20;1.10;;;;;27.88;97603.60;;;;111257;1247;41124;-77
2022/07/13 10:22:48;;;;;;;1.30;1.10;;;;;27.78;97607.20;;;;111339;1247;41211;-73
2022/07/13 10:25:19;;;;;;;1.30;1.20;;;;;27.54;97613.20;;;;111328;1247;41898;-76
2022/07/13 10:28:06;;;;;;;2.20;1.30;;;;;27.40;97611.60;;;;111337;1245;41183;-75
2022/07/13 10:30:36;;;;;;;2.00;1.10;;;;;27.78;97598.20;;;;111267;1247;41585;-76
2022/07/13 10:33:27;;;;;;;4.00;1.30;;;;;28.02;97596.00;;;;111276;1247;41460;-76
2022/07/13 10:35:58;;;;;;;2.10;1.40;;;;;27.34;97598.60;;;;111308;1247;41114;-75
2022/07/13 10:38:27;;;;;;;2.70;1.20;;;;;27.10;97595.60;;;;111374;1246;40722;-74
2022/07/13 10:41:21;;;;;;;2.30;1.30;;;;;27.02;97587.00;;;;111161;1248;41146;-74
2022/07/13 10:43:55;;;;;;;2.00;1.20;;;;;27.38;97589.40;;;;111377;1247;41367;-72
2022/07/13 10:46:54;;;;;;;2.30;1.10;;;;;27.50;97581.60;;;;111159;1247;41243;-74
2022/07/13 10:49:34;;;;;;;2.10;1.20;;;;;26.90;97581.60;;;;111049;1247;41899;-75
2022/07/13 10:52:19;;;;;;;2.50;1.20;;;;;26.60;97580.40;;;;111234;1248;41154;-75
2022/07/13 10:55:03;;;;;;;3.20;1.20;;;;;27.34;97586.40;;;;111252;1247;41466;-74
2022/07/13 10:57:34;;;;;;;1.80;1.00;;;;;28.44;97570.60;;;;111267;1247;41586;-74
2022/07/13 11:00:19;;;;;;;;;;;;;28.14;97567.00;;;;111239;1247;41643;-73
2022/07/13 11:02:50;;;;;;;1.70;1.20;;;;;28.10;97575.40;;;;111346;1247;41164;-74
2022/07/13 11:05:25;;;;;;;2.90;1.40;;;;;27.90;97567.80;;;;111240;1245;41762;-74
2022/07/13 11:07:54;;;;;;;3.30;1.30;;;;;28.20;97560.60;;;;111172;1247;41140;-75
2022/07/13 11:10:28;;;;;;;1.30;1.00;;;;;28.48;97560.80;;;;111220;1247;41160;-73
2022/07/13 11:13:02;;;;;;;1.50;0.90;;;;;28.78;97549.60;;;;111253;1247;41262;-75
2022/07/13 11:15:53;;;;;;;3.70;1.10;;;;;30.48;97554.40;;;;111315;1246;41169;-74
2022/07/13 11:18:22;;;;;;;2.20;1.20;;;;;30.90;97552.00;;;;111155;1247;41971;-75
2022/07/13 11:21:05;;;;;;;1.70;0.90;;;;;30.04;97564.20;;;;111321;1247;41135;-74
2022/07/13 11:26:32;;;;;;;1.40;0.90;;;;;28.30;97568.20;;;;111266;1247;41136;-75
2022/07/13 11:29:16;;;;;;;4.00;1.10;;;;;27.98;97571.20;;;;111434;1247;41264;-73
2022/07/13 11:31:45;;;;;;;1.10;1.00;;;;;27.72;97580.80;;;;111133;1247;41136;-75
2022/07/13 11:34:14;;;;;;;1.60;1.00;;;;;27.50;97574.60;;;;111378;1245;41159;-75
2022/07/13 11:36:44;;;;;;;3.10;1.10;;;;;27.24;97587.00;;;;111230;1247;40758;-75
2022/07/13 11:39:35;;;;;;;1.40;0.90;;;;;27.20;97587.20;;;;111273;1246;41260;-74
2022/07/13 11:42:08;;;;;;;1.70;0.90;;;;;27.30;97579.00;;;;111320;1247;41951;-73
2022/07/13 11:44:36;;;;;;;3.00;1.10;;;;;27.16;97580.80;;;;111302;1246;41141;-73
2022/07/13 11:47:07;;;;;;;3.30;0.90;;;;;26.90;97582.20;;;;111200;1247;41281;-74
2022/07/13 11:49:47;;;;;;;1.20;0.90;;;;;26.64;97589.80;;;;111250;1247;41173;-73
2022/07/13 11:52:21;;;;;;;0.80;0.80;;;;;26.64;97589.80;;;;111333;1246;41233;-73
2022/07/13 11:54:59;;;;;;;0.80;0.80;;;;;26.70;97587.00;;;;111207;1247;41170;-74
2022/07/13 11:57:29;;;;;;;2.10;1.00;;;;;26.88;97582.80;;;;111242;1247;41582;-75
2022/07/13 12:00:03;;;;;;;1.80;1.10;;;;;27.00;97580.40;;;;111206;1247;41927;-73
2022/07/13 12:02:39;;;;;;;1.50;1.10;;;;;27.00;97577.20;;;;111160;1248;41146;-73
2022/07/13 12:05:08;;;;;;;1.00;0.90;;;;;26.90;97580.20;;;;111093;1247;41926;-73
2022/07/13 12:07:44;;;;;;;1.20;1.00;;;;;27.34;97572.00;;;;111070;1248;41176;-74
2022/07/13 12:10:14;;;;;;;1.50;1.00;;;;;28.80;97556.00;;;;111158;1247;41146;-73
2022/07/13 12:12:43;;;;;;;2.60;1.00;;;;;29.24;97556.60;;;;111192;1247;41154;-74
2022/07/13 12:15:12;;;;;;;1.70;0.70;;;;;29.88;97557.40;;;;111110;1247;41536;-73
2022/07/13 12:17:48;;;;;;;4.50;1.10;;;;;29.94;97552.20;;;;111266;1244;41239;-73
2022/07/13 12:20:20;;;;;;;0.90;0.90;;;;;30.00;97556.00;;;;111448;1247;41702;-73
2022/07/13 12:22:54;;;;;;;1.10;0.90;;;;;29.40;97544.20;;;;111232;1247;41179;-72
2022/07/13 12:25:34;;;;;;;1.30;1.00;;;;;28.76;97547.20;;;;111244;1247;41150;-73
2022/07/13 12:28:06;;;;;;;2.90;1.00;;;;;28.54;97548.60;;;;111266;1247;41057;-73
2022/07/13 12:30:54;;;;;;;1.60;1.10;;;;;28.20;97545.00;;;;110992;1247;41150;-74
2022/07/13 12:33:24;;;;;;;1.90;1.10;;;;;27.78;97549.40;;;;111130;1249;41606;-73
2022/07/13 12:36:04;;;;;;;2.90;1.50;;;;;27.40;97546.20;;;;111206;1247;41143;-72
2022/07/13 12:38:34;;;;;;;3.70;1.50;;;;;27.22;97547.60;;;;111194;1247;41163;-73
2022/07/13 12:41:03;;;;;;;2.30;0.90;;;;;26.74;97548.00;;;;111113;1247;41154;-73
2022/07/13 12:43:32;;;;;;;0.80;0.80;;;;;26.50;97550.20;;;;111218;1248;41265;-73
2022/07/13 12:46:03;;;;;;;1.90;1.00;;;;;26.60;97545.60;;;;111108;1249;41907;-71
2022/07/13 12:48:33;;;;;;;0.80;0.70;;;;;26.80;97540.80;;;;111175;1247;42290;-73